Time;durP1;ratioP1;P1;durP2;ratioP2;P2;SDS_P1;SDS_P2;PMS_P1;PMS_P2;Temp;Humidity;BMP_temperature;BMP_pressure;BME280_temperature;BME280_humidity;BME280_pressure;Samples;Min_cycle;Max_cycle;Signal;HPM_P1;HPM_P2
2022/06/17 00:01:49;;;;;;;;;12.25;12.25;;;;;;;;4990275;28;46017;-66
2022/06/17 00:04:14;;;;;;;;;10.00;10.00;;;;;;;;4991160;28;45813;-66
2022/06/17 00:06:46;;;;;;;;;13.25;13.25;;;;;;;;4980357;28;45490;-65
2022/06/17 00:09:12;;;;;;;;;16.00;16.00;;;;;;;;4990141;28;45623;-66
2022/06/17 00:11:38;;;;;;;;;13.50;13.50;;;;;;;;4990099;28;45916;-66
2022/06/17 00:14:09;;;;;;;;;14.75;13.50;;;;;;;;4990125;28;45455;-67
2022/06/17 00:16:34;;;;;;;;;13.50;12.25;;;;;;;;4988917;28;45542;-66
2022/06/17 00:19:00;;;;;;;;;12.25;11.50;;;;;;;;4989009;28;48668;-66
2022/06/17 00:21:35;;;;;;;;;13.00;12.25;;;;;;;;4990151;28;45444;-65
2022/06/17 00:24:05;;;;;;;;;11.25;10.25;;;;;;;;4989583;28;45557;-67
2022/06/17 00:26:30;;;;;;;;;16.50;14.50;;;;;;;;4990039;28;45570;-66
2022/06/17 00:28:55;;;;;;;;;12.00;11.50;;;;;;;;4987777;28;48498;-66
2022/06/17 00:31:21;;;;;;;;;12.75;11.75;;;;;;;;4990448;28;45653;-65
2022/06/17 00:33:46;;;;;;;;;11.50;11.00;;;;;;;;4989813;28;45672;-65
2022/06/17 00:36:15;;;;;;;;;10.00;10.00;;;;;;;;4989911;28;45476;-66
2022/06/17 00:38:40;;;;;;;;;15.25;12.50;;;;;;;;4989995;28;46606;-65
2022/06/17 00:41:11;;;;;;;;;13.25;13.25;;;;;;;;4986206;28;45442;-67
2022/06/17 00:43:37;;;;;;;;;10.00;8.25;;;;;;;;4990213;28;45531;-65
2022/06/17 00:46:10;;;;;;;;;13.00;11.75;;;;;;;;4990017;28;45601;-67
2022/06/17 00:48:49;;;;;;;;;12.50;12.50;;;;;;;;4978277;28;47913;-66
2022/06/17 00:51:18;;;;;;;;;11.75;11.75;;;;;;;;4981034;28;46209;-67
2022/06/17 00:53:50;;;;;;;;;13.00;13.00;;;;;;;;4970765;28;45649;-66
2022/06/17 00:56:20;;;;;;;;;20.25;14.75;;;;;;;;4967286;28;45547;-67
2022/06/17 00:59:15;;;;;;;;;13.25;13.00;;;;;;;;4970947;28;47394;-66
2022/06/17 01:01:44;;;;;;;;;14.25;12.75;;;;;;;;4973951;28;45424;-66
2022/06/17 01:04:10;;;;;;;;;13.50;13.50;;;;;;;;5008105;28;45465;-67
2022/06/17 01:06:38;;;;;;;;;15.50;13.25;;;;;;;;4993740;28;45521;-65
2022/06/17 01:11:55;;;;;;;;;13.00;11.75;;;;;;;;4993367;28;45773;-66
2022/06/17 01:14:20;;;;;;;;;13.75;12.25;;;;;;;;4974878;28;45812;-66
2022/06/17 01:16:47;;;;;;;;;13.25;12.00;;;;;;;;4972433;28;45449;-66
2022/06/17 01:19:21;;;;;;;;;12.25;12.00;;;;;;;;4994371;28;46589;-66
2022/06/17 01:21:57;;;;;;;;;11.75;11.75;;;;;;;;4992688;28;45569;-68
2022/06/17 01:24:23;;;;;;;;;12.50;11.00;;;;;;;;4993222;28;45598;-65
2022/06/17 01:26:48;;;;;;;;;14.00;12.50;;;;;;;;4992716;28;45436;-65
2022/06/17 01:29:13;;;;;;;;;13.50;13.50;;;;;;;;4990667;28;46417;-66
2022/06/17 01:31:41;;;;;;;;;14.00;14.00;;;;;;;;4991131;28;45918;-65
2022/06/17 01:34:07;;;;;;;;;12.75;11.75;;;;;;;;5000343;28;45501;-65
2022/06/17 01:36:32;;;;;;;;;12.75;12.75;;;;;;;;4992071;28;45588;-66
2022/06/17 01:38:58;;;;;;;;;10.00;10.00;;;;;;;;4992076;28;46393;-66
2022/06/17 01:41:25;;;;;;;;;13.25;13.25;;;;;;;;4986264;28;45928;-66
2022/06/17 01:43:55;;;;;;;;;11.75;11.75;;;;;;;;4992156;28;45472;-66
2022/06/17 01:46:25;;;;;;;;;12.50;12.50;;;;;;;;4992715;28;45597;-66
2022/06/17 01:48:57;;;;;;;;;12.75;11.75;;;;;;;;4992248;28;45716;-66
2022/06/17 01:51:24;;;;;;;;;15.00;15.00;;;;;;;;4992012;28;45581;-66
2022/06/17 01:53:53;;;;;;;;;13.75;13.75;;;;;;;;4992114;28;45454;-66
2022/06/17 01:56:19;;;;;;;;;9.50;9.50;;;;;;;;4985456;28;45449;-65
2022/06/17 01:58:55;;;;;;;;;14.25;14.00;;;;;;;;4992068;28;46453;-65
2022/06/17 02:01:22;;;;;;;;;14.75;14.75;;;;;;;;4992761;28;45577;-66
2022/06/17 02:03:51;;;;;;;;;12.00;12.00;;;;;;;;4992266;28;45684;-66
2022/06/17 02:06:19;;;;;;;;;12.75;12.50;;;;;;;;4992264;28;45502;-67
2022/06/17 02:08:44;;;;;;;;;12.25;12.25;;;;;;;;4981761;28;48632;-66
2022/06/17 02:11:10;;;;;;;;;16.50;13.25;;;;;;;;4992257;28;45622;-66
2022/06/17 02:13:36;;;;;;;;;14.50;13.50;;;;;;;;4992619;28;45706;-65
2022/06/17 02:16:03;;;;;;;;;13.25;13.00;;;;;;;;4992659;28;45657;-65
2022/06/17 02:18:30;;;;;;;;;12.00;12.00;;;;;;;;4989807;28;45749;-66
2022/06/17 02:20:57;;;;;;;;;12.75;11.75;;;;;;;;4979358;28;50620;-66
2022/06/17 02:23:23;;;;;;;;;12.00;12.00;;;;;;;;4989723;28;45821;-66
2022/06/17 02:25:50;;;;;;;;;11.25;11.25;;;;;;;;4966142;28;45468;-66
2022/06/17 02:28:17;;;;;;;;;11.75;11.75;;;;;;;;4978440;28;48630;-65
2022/06/17 02:30:43;;;;;;;;;11.50;11.50;;;;;;;;4991383;28;45644;-65
2022/06/17 02:33:09;;;;;;;;;11.75;11.75;;;;;;;;4989114;28;45859;-66
2022/06/17 02:35:36;;;;;;;;;13.00;10.50;;;;;;;;4970982;28;45833;-66
2022/06/17 02:38:02;;;;;;;;;14.25;14.25;;;;;;;;4988875;28;46354;-65
2022/06/17 02:40:36;;;;;;;;;12.00;11.00;;;;;;;;4991689;28;45747;-65
2022/06/17 02:43:04;;;;;;;;;11.25;11.25;;;;;;;;4990162;28;45728;-66
2022/06/17 02:45:31;;;;;;;;;14.50;13.75;;;;;;;;4988474;28;45482;-66
2022/06/17 02:47:57;;;;;;;;;14.25;12.25;;;;;;;;4991467;28;46352;-66
2022/06/17 02:50:24;;;;;;;;;12.50;12.00;;;;;;;;4991332;28;45553;-67
2022/06/17 02:52:50;;;;;;;;;15.25;14.50;;;;;;;;4995947;28;45690;-66
2022/06/17 02:55:28;;;;;;;;;11.25;11.25;;;;;;;;4994828;28;45762;-66
2022/06/17 02:57:58;;;;;;;;;14.50;13.75;;;;;;;;4991396;28;45824;-66
2022/06/17 03:00:23;;;;;;;;;15.50;15.50;;;;;;;;4988899;28;45566;-66
2022/06/17 03:02:51;;;;;;;;;16.50;14.00;;;;;;;;4991319;28;45519;-66
2022/06/17 03:05:22;;;;;;;;;15.25;14.25;;;;;;;;5001920;28;45777;-67
2022/06/17 03:07:48;;;;;;;;;15.00;13.50;;;;;;;;4962275;28;48306;-65
2022/06/17 03:10:15;;;;;;;;;11.25;11.25;;;;;;;;4981413;28;45581;-66
2022/06/17 03:12:42;;;;;;;;;15.00;14.25;;;;;;;;4991237;28;45524;-66
2022/06/17 03:15:12;;;;;;;;;15.75;15.50;;;;;;;;4993543;28;45797;-66
2022/06/17 03:17:38;;;;;;;;;15.00;14.25;;;;;;;;4989179;28;47663;-66
2022/06/17 03:20:05;;;;;;;;;15.00;14.75;;;;;;;;4991900;28;45410;-67
2022/06/17 03:22:30;;;;;;;;;13.00;13.00;;;;;;;;4966171;28;45424;-67
2022/06/17 03:25:00;;;;;;;;;12.50;11.75;;;;;;;;4990563;28;50364;-66
2022/06/17 03:27:29;;;;;;;;;14.00;14.00;;;;;;;;4990491;28;46493;-66
2022/06/17 03:29:55;;;;;;;;;13.50;13.50;;;;;;;;4986362;28;45910;-65
2022/06/17 03:32:24;;;;;;;;;12.75;12.75;;;;;;;;4993363;28;45620;-64
2022/06/17 03:34:51;;;;;;;;;12.00;12.00;;;;;;;;4991261;28;45665;-66
2022/06/17 03:37:19;;;;;;;;;16.25;14.00;;;;;;;;4996128;28;46271;-66
2022/06/17 03:39:50;;;;;;;;;13.75;13.75;;;;;;;;4995067;28;45578;-65
2022/06/17 03:42:15;;;;;;;;;15.25;14.50;;;;;;;;4995378;28;45689;-65
2022/06/17 03:44:47;;;;;;;;;12.25;12.25;;;;;;;;4994722;28;45473;-66
2022/06/17 03:47:16;;;;;;;;;14.75;14.00;;;;;;;;4992755;28;48510;-66
2022/06/17 03:49:42;;;;;;;;;11.50;11.50;;;;;;;;4974702;28;45986;-65
2022/06/17 03:52:15;;;;;;;;;10.50;10.50;;;;;;;;5011295;28;45498;-65
2022/06/17 03:54:40;;;;;;;;;16.00;14.75;;;;;;;;4995297;28;45760;-66
2022/06/17 03:57:08;;;;;;;;;15.00;13.00;;;;;;;;4994294;28;47015;-66
2022/06/17 03:59:34;;;;;;;;;15.25;14.25;;;;;;;;4994677;28;45567;-66
2022/06/17 04:02:04;;;;;;;;;12.50;12.25;;;;;;;;4991406;28;45696;-66
2022/06/17 04:04:32;;;;;;;;;14.50;13.75;;;;;;;;4994294;28;45965;-66
2022/06/17 04:06:58;;;;;;;;;11.75;11.75;;;;;;;;4995471;28;45487;-64
2022/06/17 04:09:24;;;;;;;;;18.25;15.00;;;;;;;;4981076;28;46244;-65
2022/06/17 04:11:58;;;;;;;;;14.50;14.50;;;;;;;;4990705;28;45534;-65
2022/06/17 04:14:26;;;;;;;;;14.25;12.50;;;;;;;;4984683;28;45708;-65
2022/06/17 04:17:10;;;;;;;;;16.50;13.75;;;;;;;;4990501;28;46485;-65
2022/06/17 04:19:35;;;;;;;;;13.25;13.25;;;;;;;;4990709;28;45509;-66
2022/06/17 04:22:20;;;;;;;;;13.75;13.75;;;;;;;;4990903;28;45539;-66
2022/06/17 04:24:48;;;;;;;;;13.00;12.50;;;;;;;;4990310;28;45662;-65
2022/06/17 04:27:14;;;;;;;;;14.75;14.00;;;;;;;;4990142;28;45675;-66
2022/06/17 04:29:42;;;;;;;;;18.00;14.75;;;;;;;;4982107;28;45663;-65
2022/06/17 04:32:16;;;;;;;;;11.25;8.25;;;;;;;;4986463;28;45455;-65
2022/06/17 04:34:41;;;;;;;;;15.50;15.25;;;;;;;;4990274;28;45486;-66
2022/06/17 04:37:12;;;;;;;;;14.75;12.25;;;;;;;;4990549;28;45574;-65
2022/06/17 04:39:57;;;;;;;;;13.25;13.25;;;;;;;;4978898;28;47290;-65
2022/06/17 04:42:34;;;;;;;;;11.50;10.50;;;;;;;;4996179;28;45514;-65
2022/06/17 04:44:59;;;;;;;;;14.25;13.25;;;;;;;;4990112;28;45458;-67
2022/06/17 04:47:24;;;;;;;;;11.50;11.50;;;;;;;;4989976;28;46510;-65
2022/06/17 04:49:54;;;;;;;;;16.00;14.25;;;;;;;;4989940;28;45490;-66
2022/06/17 04:52:30;;;;;;;;;13.25;13.25;;;;;;;;4990759;28;45556;-65
2022/06/17 04:54:56;;;;;;;;;16.00;15.25;;;;;;;;4990149;28;45979;-66
2022/06/17 04:57:21;;;;;;;;;10.25;10.25;;;;;;;;4979552;28;46515;-65
2022/06/17 04:59:47;;;;;;;;;15.00;14.00;;;;;;;;4989699;28;45391;-66
2022/06/17 05:02:18;;;;;;;;;17.75;13.00;;;;;;;;4985315;28;45589;-66
2022/06/17 05:04:44;;;;;;;;;12.50;12.50;;;;;;;;4989839;28;45453;-65
2022/06/17 05:07:10;;;;;;;;;16.50;15.50;;;;;;;;4982702;28;48438;-65
2022/06/17 05:09:42;;;;;;;;;14.00;14.00;;;;;;;;4989690;28;45507;-65
2022/06/17 05:12:13;;;;;;;;;14.00;13.25;;;;;;;;4990006;28;45623;-66
2022/06/17 05:14:46;;;;;;;;;16.75;15.00;;;;;;;;4989663;28;45515;-66
2022/06/17 05:17:12;;;;;;;;;16.00;14.00;;;;;;;;4989453;28;45538;-66
2022/06/17 05:19:37;;;;;;;;;16.00;14.25;;;;;;;;4989905;28;45676;-65
2022/06/17 05:22:03;;;;;;;;;18.25;18.25;;;;;;;;5009443;28;45458;-66
2022/06/17 05:24:29;;;;;;;;;15.25;14.50;;;;;;;;4976774;28;45736;-66
2022/06/17 05:26:54;;;;;;;;;14.75;13.50;;;;;;;;4979404;28;47463;-66
2022/06/17 05:29:20;;;;;;;;;19.25;17.00;;;;;;;;4989524;28;45528;-65
2022/06/17 05:31:49;;;;;;;;;13.00;13.00;;;;;;;;4989661;28;45580;-65
2022/06/17 05:34:15;;;;;;;;;14.00;14.00;;;;;;;;4990136;28;45440;-66
2022/06/17 05:36:40;;;;;;;;;14.00;14.00;;;;;;;;4979015;28;47236;-66
2022/06/17 05:39:05;;;;;;;;;13.00;12.00;;;;;;;;4989229;28;45509;-66
2022/06/17 05:41:30;;;;;;;;;16.25;15.00;;;;;;;;4989585;28;46191;-66
2022/06/17 05:43:56;;;;;;;;;12.25;12.25;;;;;;;;4989970;28;45553;-65
2022/06/17 05:46:21;;;;;;;;;14.50;13.00;;;;;;;;4989927;28;45442;-65
2022/06/17 05:48:46;;;;;;;;;14.50;14.50;;;;;;;;4979136;28;45546;-65
2022/06/17 05:51:12;;;;;;;;;16.75;16.50;;;;;;;;4989387;28;45850;-66
2022/06/17 05:53:37;;;;;;;;;23.50;21.00;;;;;;;;4979995;28;45519;-67
2022/06/17 05:56:03;;;;;;;;;16.00;15.25;;;;;;;;4989069;28;46396;-67
2022/06/17 05:58:28;;;;;;;;;17.75;16.75;;;;;;;;4984429;28;45501;-66
2022/06/17 06:00:53;;;;;;;;;19.00;18.25;;;;;;;;4988176;28;45525;-67
2022/06/17 06:03:21;;;;;;;;;15.00;14.25;;;;;;;;4989184;28;45605;-68
2022/06/17 06:05:46;;;;;;;;;17.50;15.75;;;;;;;;4988950;28;45722;-67
2022/06/17 06:08:11;;;;;;;;;18.75;17.25;;;;;;;;4989244;28;45929;-67
2022/06/17 06:10:37;;;;;;;;;12.50;12.50;;;;;;;;4985644;28;46135;-67
2022/06/17 06:13:05;;;;;;;;;15.75;13.00;;;;;;;;4989735;28;45529;-68
2022/06/17 06:15:31;;;;;;;;;16.00;13.25;;;;;;;;4988862;28;45985;-68
2022/06/17 06:17:56;;;;;;;;;10.75;10.50;;;;;;;;4988717;28;46202;-67
2022/06/17 06:20:22;;;;;;;;;12.75;9.75;;;;;;;;4989448;28;45491;-67
2022/06/17 06:22:47;;;;;;;;;10.50;8.50;;;;;;;;4990364;28;45642;-67
2022/06/17 06:25:14;;;;;;;;;13.50;10.75;;;;;;;;4992762;28;46271;-67
2022/06/17 06:27:39;;;;;;;;;8.75;8.25;;;;;;;;4982515;28;46396;-67
2022/06/17 06:30:05;;;;;;;;;12.00;9.25;;;;;;;;4992510;28;45653;-70
2022/06/17 06:32:30;;;;;;;;;10.00;10.00;;;;;;;;4985551;28;45423;-68
2022/06/17 06:34:55;;;;;;;;;14.00;12.00;;;;;;;;4990679;28;46564;-68
2022/06/17 06:37:20;;;;;;;;;13.25;9.00;;;;;;;;5012651;28;46019;-67
2022/06/17 06:39:47;;;;;;;;;8.50;7.50;;;;;;;;4992198;28;45537;-68
2022/06/17 06:42:12;;;;;;;;;10.25;10.25;;;;;;;;4992238;28;45378;-67
2022/06/17 06:44:38;;;;;;;;;9.00;9.00;;;;;;;;4991995;28;46454;-67
2022/06/17 06:47:03;;;;;;;;;8.75;8.75;;;;;;;;4992308;28;45480;-67
2022/06/17 06:49:29;;;;;;;;;7.75;7.75;;;;;;;;4992739;28;45565;-67
2022/06/17 06:51:54;;;;;;;;;6.75;6.75;;;;;;;;4992421;28;45408;-67
2022/06/17 06:54:19;;;;;;;;;10.25;9.00;;;;;;;;4991742;28;46070;-67
2022/06/17 06:56:44;;;;;;;;;10.75;9.25;;;;;;;;4991768;28;45485;-68
2022/06/17 06:59:11;;;;;;;;;7.25;7.25;;;;;;;;4988371;28;45537;-68
2022/06/17 07:01:37;;;;;;;;;10.00;10.00;;;;;;;;4992372;28;45742;-68
2022/06/17 07:04:03;;;;;;;;;9.00;9.00;;;;;;;;4992279;28;46514;-68
2022/06/17 07:06:28;;;;;;;;;7.00;7.00;;;;;;;;4991817;28;45654;-69
2022/06/17 07:08:53;;;;;;;;;7.00;7.00;;;;;;;;4981634;28;45601;-69
2022/06/17 07:11:18;;;;;;;;;11.00;7.25;;;;;;;;4986615;28;45448;-68
2022/06/17 07:13:44;;;;;;;;;9.00;8.25;;;;;;;;4988651;28;47794;-68
2022/06/17 07:16:09;;;;;;;;;11.00;9.25;;;;;;;;4992038;28;45468;-67
2022/06/17 07:18:35;;;;;;;;;11.25;10.00;;;;;;;;4991677;28;45538;-68
2022/06/17 07:21:02;;;;;;;;;8.50;8.50;;;;;;;;4991847;28;45593;-67
2022/06/17 07:23:34;;;;;;;;;9.00;8.00;;;;;;;;4991727;28;47569;-68
2022/06/17 07:26:00;;;;;;;;;11.00;9.25;;;;;;;;4991610;28;45442;-68
2022/06/17 07:28:28;;;;;;;;;9.00;9.00;;;;;;;;4992031;28;45364;-68
2022/06/17 07:30:54;;;;;;;;;8.50;8.50;;;;;;;;4991667;28;46138;-69
2022/06/17 07:33:21;;;;;;;;;9.25;9.25;;;;;;;;4989912;28;45730;-68
2022/06/17 07:35:47;;;;;;;;;8.50;8.50;;;;;;;;4991376;28;45634;-68
2022/06/17 07:41:01;;;;;;;;;9.00;8.75;;;;;;;;4991382;28;45505;-68
2022/06/17 07:43:27;;;;;;;;;10.00;8.00;;;;;;;;4986504;28;46326;-68
2022/06/17 07:45:52;;;;;;;;;8.50;8.50;;;;;;;;4981440;28;46238;-68
2022/06/17 07:48:18;;;;;;;;;7.50;7.25;;;;;;;;4991292;28;45369;-68
2022/06/17 07:50:43;;;;;;;;;14.50;13.50;;;;;;;;4982786;28;45626;-68
2022/06/17 07:53:09;;;;;;;;;9.00;9.00;;;;;;;;4991063;28;45449;-68
2022/06/17 07:55:34;;;;;;;;;10.25;10.25;;;;;;;;4987185;28;45450;-68
2022/06/17 07:58:00;;;;;;;;;12.00;10.75;;;;;;;;4991949;28;45665;-68
2022/06/17 08:00:27;;;;;;;;;11.00;10.00;;;;;;;;4991142;28;45445;-69
2022/06/17 08:02:52;;;;;;;;;8.00;8.00;;;;;;;;4981416;28;46603;-68
2022/06/17 08:05:17;;;;;;;;;7.50;7.50;;;;;;;;4991018;28;45523;-68
2022/06/17 08:07:43;;;;;;;;;6.00;6.00;;;;;;;;4989833;28;45501;-68
2022/06/17 08:10:09;;;;;;;;;8.25;8.25;;;;;;;;4990315;28;45504;-68
2022/06/17 08:12:34;;;;;;;;;8.25;8.25;;;;;;;;4990679;28;46111;-68
2022/06/17 08:14:59;;;;;;;;;7.25;7.25;;;;;;;;4980672;28;45941;-69
2022/06/17 08:17:24;;;;;;;;;8.75;8.75;;;;;;;;4991116;28;45502;-69
2022/06/17 08:19:52;;;;;;;;;9.25;9.25;;;;;;;;4991191;28;46169;-68
2022/06/17 08:22:20;;;;;;;;;9.75;8.50;;;;;;;;5010691;28;47383;-69
2022/06/17 08:24:45;;;;;;;;;8.00;8.00;;;;;;;;4979720;28;46251;-69
2022/06/17 08:27:11;;;;;;;;;8.75;8.50;;;;;;;;4981075;28;45773;-68
2022/06/17 08:29:36;;;;;;;;;8.00;7.00;;;;;;;;4990896;28;45574;-68
2022/06/17 08:34:45;;;;;;;;;8.00;8.00;;;;;;;;4990642;28;45727;-69
2022/06/17 08:37:13;;;;;;;;;6.00;6.00;;;;;;;;4991435;28;45361;-69
2022/06/17 08:39:38;;;;;;;;;8.00;7.00;;;;;;;;4979396;28;45531;-68
2022/06/17 08:42:39;;;;;;;;;7.25;7.25;;;;;;;;4990455;28;45694;-69
2022/06/17 08:45:07;;;;;;;;;8.25;8.25;;;;;;;;4958937;28;45594;-69
2022/06/17 08:47:41;;;;;;;;;6.50;6.50;;;;;;;;4952940;28;45510;-69
2022/06/17 08:50:17;;;;;;;;;6.75;6.50;;;;;;;;4949832;28;45893;-69
2022/06/17 08:53:02;;;;;;;;;7.25;7.25;;;;;;;;4950194;28;46704;-68
2022/06/17 08:55:27;;;;;;;;;7.25;6.25;;;;;;;;4964332;28;45428;-68
2022/06/17 08:57:59;;;;;;;;;8.75;8.75;;;;;;;;4936073;28;45674;-69
2022/06/17 09:00:33;;;;;;;;;10.25;7.50;;;;;;;;4952544;28;45547;-66
2022/06/17 09:03:17;;;;;;;;;10.00;9.00;;;;;;;;4949123;28;47503;-68
2022/06/17 09:05:51;;;;;;;;;9.00;7.25;;;;;;;;4952373;28;45741;-67
2022/06/17 09:08:16;;;;;;;;;8.00;8.00;;;;;;;;4936098;28;46044;-68
2022/06/17 09:10:47;;;;;;;;;6.25;5.50;;;;;;;;4950352;28;45453;-69
2022/06/17 09:13:20;;;;;;;;;8.25;8.25;;;;;;;;4953182;28;48698;-69
2022/06/17 09:15:50;;;;;;;;;7.25;7.25;;;;;;;;4949071;28;45808;-68
2022/06/17 09:18:18;;;;;;;;;10.00;8.50;;;;;;;;4950943;28;46113;-68
2022/06/17 09:20:46;;;;;;;;;9.75;8.25;;;;;;;;4980882;28;45751;-69
2022/06/17 09:23:13;;;;;;;;;9.50;8.75;;;;;;;;4985830;28;47871;-69
2022/06/17 09:25:41;;;;;;;;;8.50;8.50;;;;;;;;4990277;28;45681;-68
2022/06/17 09:28:12;;;;;;;;;7.00;7.00;;;;;;;;4990448;28;45510;-68
2022/06/17 09:30:40;;;;;;;;;6.25;6.25;;;;;;;;4989984;28;45465;-68
2022/06/17 09:33:09;;;;;;;;;9.25;7.50;;;;;;;;4979604;28;46664;-68
2022/06/17 09:35:35;;;;;;;;;9.00;8.00;;;;;;;;4981091;28;45681;-69
2022/06/17 09:38:05;;;;;;;;;9.25;6.75;;;;;;;;4989949;28;45486;-68
2022/06/17 09:40:34;;;;;;;;;10.00;9.50;;;;;;;;4990269;28;45769;-69
2022/06/17 09:43:14;;;;;;;;;6.00;6.00;;;;;;;;5009622;28;47620;-69
2022/06/17 09:45:51;;;;;;;;;8.25;8.25;;;;;;;;4989520;28;45653;-69
2022/06/17 09:48:20;;;;;;;;;7.00;7.00;;;;;;;;4989805;28;45442;-68
2022/06/17 09:50:51;;;;;;;;;5.00;5.00;;;;;;;;4989863;28;45592;-68
2022/06/17 09:53:20;;;;;;;;;9.50;8.75;;;;;;;;4989791;28;46619;-69
2022/06/17 09:55:49;;;;;;;;;9.00;9.00;;;;;;;;4990374;28;45550;-68
2022/06/17 09:58:47;;;;;;;;;9.50;7.00;;;;;;;;4993513;28;45458;-70
2022/06/17 10:01:12;;;;;;;;;6.75;6.75;;;;;;;;4951546;28;45503;-69
2022/06/17 10:03:38;;;;;;;;;7.00;6.75;;;;;;;;4938865;28;48610;-69
2022/06/17 10:06:22;;;;;;;;;6.00;6.00;;;;;;;;4957116;28;45519;-69
2022/06/17 10:08:48;;;;;;;;;7.00;7.00;;;;;;;;4955695;28;45519;-68
2022/06/17 10:11:29;;;;;;;;;5.50;5.50;;;;;;;;4953161;28;45624;-68
2022/06/17 10:14:06;;;;;;;;;7.25;7.00;;;;;;;;4951350;28;46730;-69
2022/06/17 10:19:50;;;;;;;;;5.75;5.75;;;;;;;;4964068;28;45443;-69
2022/06/17 10:22:23;;;;;;;;;6.00;6.00;;;;;;;;4956004;28;45750;-69
2022/06/17 10:24:49;;;;;;;;;5.00;5.00;;;;;;;;4954932;28;46402;-69
2022/06/17 10:27:23;;;;;;;;;6.50;5.25;;;;;;;;4955088;28;45598;-69
2022/06/17 10:30:03;;;;;;;;;5.50;5.50;;;;;;;;4955067;28;45511;-69
2022/06/17 10:32:29;;;;;;;;;5.50;5.50;;;;;;;;4954705;28;45385;-69
2022/06/17 10:35:01;;;;;;;;;5.75;5.75;;;;;;;;4950912;28;47410;-69
2022/06/17 10:37:28;;;;;;;;;7.00;6.00;;;;;;;;4973423;28;45591;-70
2022/06/17 10:39:54;;;;;;;;;4.00;4.00;;;;;;;;4992883;28;45469;-69
2022/06/17 10:42:20;;;;;;;;;7.00;6.75;;;;;;;;4992442;28;45523;-69
2022/06/17 10:44:59;;;;;;;;;7.00;7.00;;;;;;;;4992388;28;46395;-70
2022/06/17 10:47:24;;;;;;;;;5.75;5.75;;;;;;;;4987264;28;45587;-70
2022/06/17 10:49:53;;;;;;;;;6.25;6.25;;;;;;;;4990996;28;45550;-69
2022/06/17 10:52:20;;;;;;;;;7.00;7.00;;;;;;;;4994065;28;45543;-69
2022/06/17 10:54:48;;;;;;;;;5.25;5.25;;;;;;;;4993319;28;45896;-69
2022/06/17 10:57:24;;;;;;;;;7.75;7.25;;;;;;;;4993303;28;45447;-69
2022/06/17 10:59:49;;;;;;;;;8.00;8.00;;;;;;;;4984512;28;45436;-69
2022/06/17 11:02:20;;;;;;;;;5.25;5.25;;;;;;;;4993581;28;45454;-68
2022/06/17 11:04:50;;;;;;;;;5.50;5.50;;;;;;;;4993062;28;46676;-69
2022/06/17 11:07:17;;;;;;;;;5.00;5.00;;;;;;;;4993599;28;45541;-69
2022/06/17 11:09:47;;;;;;;;;7.00;7.00;;;;;;;;4993470;28;45517;-70
2022/06/17 11:12:19;;;;;;;;;5.75;5.75;;;;;;;;4993251;28;45569;-69
2022/06/17 11:14:44;;;;;;;;;7.25;7.00;;;;;;;;4984200;28;46760;-68
2022/06/17 11:17:25;;;;;;;;;7.50;7.50;;;;;;;;4992914;28;45746;-69
2022/06/17 11:19:52;;;;;;;;;6.50;6.50;;;;;;;;4990190;28;45871;-69
2022/06/17 11:22:20;;;;;;;;;6.25;6.25;;;;;;;;4986035;28;45602;-68
2022/06/17 11:24:49;;;;;;;;;5.00;5.00;;;;;;;;4982977;28;48546;-68
2022/06/17 11:27:29;;;;;;;;;7.75;7.75;;;;;;;;4981207;28;45482;-70
2022/06/17 11:29:56;;;;;;;;;6.75;6.75;;;;;;;;4992564;28;45440;-68
2022/06/17 11:32:21;;;;;;;;;6.50;6.50;;;;;;;;4987618;28;45419;-68
2022/06/17 11:34:51;;;;;;;;;7.25;7.25;;;;;;;;4992568;28;46676;-69
2022/06/17 11:37:33;;;;;;;;;8.00;8.00;;;;;;;;4993464;28;45849;-69
2022/06/17 11:40:17;;;;;;;;;3.75;3.75;;;;;;;;4993079;28;46176;-70
2022/06/17 11:42:44;;;;;;;;;7.00;7.00;;;;;;;;4992425;28;45431;-69
2022/06/17 11:45:13;;;;;;;;;5.00;5.00;;;;;;;;4982435;28;48165;-69
2022/06/17 11:47:43;;;;;;;;;7.50;7.50;;;;;;;;4992554;28;45590;-68
2022/06/17 11:50:17;;;;;;;;;7.00;6.00;;;;;;;;4988744;28;45581;-70
2022/06/17 11:52:43;;;;;;;;;6.00;6.00;;;;;;;;4992839;28;45620;-69
2022/06/17 11:55:09;;;;;;;;;7.00;7.00;;;;;;;;4992680;28;45522;-69
2022/06/17 11:57:36;;;;;;;;;7.25;7.00;;;;;;;;4992376;28;45556;-69
2022/06/17 12:00:04;;;;;;;;;6.50;6.50;;;;;;;;4992497;28;45430;-69
2022/06/17 12:02:30;;;;;;;;;7.00;7.00;;;;;;;;4992456;28;45562;-69
2022/06/17 12:05:34;;;;;;;;;6.25;6.25;;;;;;;;4992642;28;45386;-69
2022/06/17 12:08:12;;;;;;;;;6.00;6.00;;;;;;;;4915796;28;46073;-68
2022/06/17 12:10:40;;;;;;;;;6.00;4.25;;;;;;;;4929081;28;46194;-67
2022/06/17 12:13:08;;;;;;;;;5.50;5.50;;;;;;;;4931553;28;46034;-69
2022/06/17 12:15:34;;;;;;;;;4.50;4.50;;;;;;;;4931066;28;45706;-69
2022/06/17 12:18:00;;;;;;;;;7.00;6.75;;;;;;;;4932395;28;49436;-70
2022/06/17 12:20:43;;;;;;;;;6.50;6.00;;;;;;;;4931739;28;45572;-69
2022/06/17 12:23:12;;;;;;;;;5.50;5.50;;;;;;;;4917173;28;45497;-68
2022/06/17 12:25:37;;;;;;;;;5.00;5.00;;;;;;;;4930932;28;46081;-67
2022/06/17 12:28:13;;;;;;;;;5.50;5.50;;;;;;;;4931375;28;45867;-67
2022/06/17 12:30:47;;;;;;;;;6.00;6.00;;;;;;;;4914847;28;46261;-69
2022/06/17 12:33:12;;;;;;;;;8.75;7.00;;;;;;;;4930487;28;45677;-68
2022/06/17 12:35:38;;;;;;;;;5.25;5.25;;;;;;;;4930615;28;45723;-69
2022/06/17 12:38:22;;;;;;;;;4.75;4.75;;;;;;;;4943013;28;45530;-69
2022/06/17 12:40:55;;;;;;;;;5.50;5.50;;;;;;;;4991930;28;47046;-68
2022/06/17 12:43:23;;;;;;;;;6.75;6.75;;;;;;;;4992293;28;45464;-68
2022/06/17 12:46:00;;;;;;;;;7.25;7.25;;;;;;;;4991226;28;45704;-68
2022/06/17 12:48:44;;;;;;;;;9.00;8.00;;;;;;;;4991359;28;45462;-69
2022/06/17 12:53:59;;;;;;;;;7.25;7.25;;;;;;;;4991669;28;45439;-70
2022/06/17 12:56:24;;;;;;;;;5.25;5.25;;;;;;;;4991141;28;46643;-70
2022/06/17 12:58:53;;;;;;;;;6.50;5.75;;;;;;;;4989346;28;45438;-69
2022/06/17 13:01:25;;;;;;;;;6.00;6.00;;;;;;;;4991861;28;45778;-68
2022/06/17 13:03:59;;;;;;;;;5.50;5.50;;;;;;;;4991199;28;45530;-69
2022/06/17 13:06:24;;;;;;;;;6.00;5.00;;;;;;;;4991145;28;46476;-69
2022/06/17 13:08:58;;;;;;;;;6.50;6.50;;;;;;;;4992345;28;45549;-69
2022/06/17 13:11:24;;;;;;;;;5.00;5.00;;;;;;;;4991884;28;45387;-69
2022/06/17 13:13:58;;;;;;;;;5.00;5.00;;;;;;;;4991530;28;45805;-69
2022/06/17 13:16:30;;;;;;;;;7.25;7.25;;;;;;;;4989299;28;46258;-68
2022/06/17 13:19:00;;;;;;;;;5.00;5.00;;;;;;;;5003217;28;45939;-67
2022/06/17 13:21:43;;;;;;;;;6.00;6.00;;;;;;;;4993712;28;46749;-68
2022/06/17 13:24:13;;;;;;;;;6.00;6.00;;;;;;;;4997071;28;45359;-67
2022/06/17 13:26:56;;;;;;;;;5.75;5.25;;;;;;;;4987207;28;47453;-66
2022/06/17 13:29:27;;;;;;;;;7.25;7.25;;;;;;;;4991971;28;45583;-66
2022/06/17 13:31:56;;;;;;;;;10.00;7.75;;;;;;;;5006584;28;45411;-66
2022/06/17 13:34:26;;;;;;;;;7.75;6.50;;;;;;;;4999157;28;45665;-67
2022/06/17 13:36:56;;;;;;;;;8.00;7.00;;;;;;;;4995671;28;45750;-66
2022/06/17 13:39:25;;;;;;;;;6.00;6.00;;;;;;;;4997671;28;45700;-69
2022/06/17 13:41:59;;;;;;;;;7.25;7.25;;;;;;;;4990667;28;45557;-67
2022/06/17 13:44:47;;;;;;;;;7.50;7.00;;;;;;;;5007360;28;45819;-66
2022/06/17 13:47:36;;;;;;;;;8.25;8.25;;;;;;;;4965949;28;46481;-68
2022/06/17 13:50:06;;;;;;;;;5.50;5.50;;;;;;;;4893908;28;45652;-67
2022/06/17 13:52:52;;;;;;;;;10.00;7.50;;;;;;;;4912573;28;45591;-68
2022/06/17 13:55:29;;;;;;;;;7.00;7.00;;;;;;;;4911303;28;45619;-67
2022/06/17 13:58:13;;;;;;;;;10.50;8.25;;;;;;;;4905259;28;45504;-68
2022/06/17 14:00:40;;;;;;;;;7.00;7.00;;;;;;;;4908332;28;45668;-67
2022/06/17 14:03:07;;;;;;;;;7.25;7.25;;;;;;;;4905420;28;45636;-67
2022/06/17 14:05:35;;;;;;;;;7.00;6.25;;;;;;;;4908217;28;46192;-66
2022/06/17 14:08:03;;;;;;;;;7.75;7.75;;;;;;;;4909623;28;45644;-68
2022/06/17 14:10:31;;;;;;;;;8.00;8.00;;;;;;;;4911714;28;45480;-66
2022/06/17 14:12:58;;;;;;;;;7.50;7.50;;;;;;;;4911251;28;45636;-66
2022/06/17 14:15:30;;;;;;;;;5.25;5.25;;;;;;;;4904904;28;45659;-68
2022/06/17 14:17:58;;;;;;;;;7.50;7.50;;;;;;;;4906913;28;46870;-67
2022/06/17 14:20:35;;;;;;;;;8.50;8.50;;;;;;;;4905714;28;45913;-67
2022/06/17 14:23:06;;;;;;;;;9.00;5.50;;;;;;;;4909662;28;45552;-66
2022/06/17 14:25:51;;;;;;;;;9.25;8.25;;;;;;;;4966271;28;45515;-67
2022/06/17 14:28:35;;;;;;;;;7.00;7.00;;;;;;;;4971450;28;45740;-67
2022/06/17 14:31:08;;;;;;;;;9.00;8.75;;;;;;;;4972943;28;46051;-68
2022/06/17 14:33:39;;;;;;;;;7.00;7.00;;;;;;;;4972508;28;45644;-66
2022/06/17 14:36:08;;;;;;;;;8.25;8.25;;;;;;;;4970979;28;47501;-68
2022/06/17 14:38:37;;;;;;;;;6.75;6.75;;;;;;;;4971872;28;45583;-67
2022/06/17 14:44:18;;;;;;;;;8.25;8.25;;;;;;;;4970714;28;48362;-67
2022/06/17 14:47:02;;;;;;;;;9.00;7.75;;;;;;;;4986970;28;45626;-66
2022/06/17 14:49:39;;;;;;;;;8.00;8.00;;;;;;;;4989138;28;46426;-68
2022/06/17 14:52:21;;;;;;;;;7.00;7.00;;;;;;;;4984409;28;45717;-66
2022/06/17 14:54:58;;;;;;;;;8.00;8.00;;;;;;;;4988750;28;45731;-68
2022/06/17 14:57:24;;;;;;;;;9.75;9.00;;;;;;;;4988289;28;45511;-67
2022/06/17 14:59:50;;;;;;;;;9.25;8.00;;;;;;;;4988211;28;47508;-67
2022/06/17 15:02:15;;;;;;;;;9.00;9.00;;;;;;;;4988790;28;45537;-68